Time;durP1;ratioP1;P1;durP2;ratioP2;P2;SDS_P1;SDS_P2;PMS_P1;PMS_P2;Temp;Humidity;BMP_temperature;BMP_pressure;BME280_temperature;BME280_humidity;BME280_pressure;Samples;Min_cycle;Max_cycle;Signal;HPM_P1;HPM_P2
2023/01/11 00:01:50;;;;;;;69.25;43.45;;;8.10;99.90;;;;;;5052345;28;20017;-66
2023/01/11 00:04:16;;;;;;;35.67;23.27;;;8.10;99.90;;;;;;5052421;28;20025;-65
2023/01/11 00:06:41;;;;;;;28.02;16.88;;;8.20;99.90;;;;;;5051972;28;20047;-66
2023/01/11 00:09:07;;;;;;;21.92;11.13;;;8.20;99.90;;;;;;5052516;28;20029;-66
2023/01/11 00:11:33;;;;;;;337.45;212.75;;;8.20;99.90;;;;;;5052592;28;20056;-66
2023/01/11 00:13:58;;;;;;;44.60;25.65;;;8.30;99.90;;;;;;5052323;28;20036;-66
2023/01/11 00:16:24;;;;;;;24.63;13.85;;;8.30;99.90;;;;;;5052208;28;20021;-66
2023/01/11 00:18:50;;;;;;;15.35;6.53;;;8.30;99.90;;;;;;5052210;28;20032;-65
2023/01/11 00:21:15;;;;;;;13.70;6.95;;;8.40;99.90;;;;;;5051746;28;20409;-66
2023/01/11 00:23:41;;;;;;;13.27;5.80;;;8.30;99.90;;;;;;5052371;28;20021;-66
2023/01/11 00:26:10;;;;;;;11.90;5.65;;;8.40;99.90;;;;;;5052198;28;20031;-66
2023/01/11 00:28:36;;;;;;;12.60;5.82;;;8.50;99.90;;;;;;5051816;28;20132;-66
2023/01/11 00:31:02;;;;;;;126.30;59.25;;;8.50;99.90;;;;;;5052081;28;20108;-66
2023/01/11 00:33:28;;;;;;;242.38;114.97;;;8.60;99.90;;;;;;5051691;28;20051;-66
2023/01/11 00:35:54;;;;;;;449.88;225.02;;;8.60;99.90;;;;;;5051418;28;20452;-66
2023/01/11 00:49:18;;;;;;;;;;;8.50;99.90;;;;;;5052508;28;20131;-66
2023/01/11 00:51:44;;;;;;;11.55;5.93;;;8.40;99.90;;;;;;5051402;28;19912;-66
2023/01/11 00:54:09;;;;;;;13.18;6.28;;;8.30;99.90;;;;;;5052011;28;20418;-65
2023/01/11 00:56:35;;;;;;;11.68;5.82;;;8.30;99.90;;;;;;5051840;28;20025;-66
2023/01/11 00:59:02;;;;;;;11.40;6.10;;;8.20;99.90;;;;;;5052225;28;20029;-66
2023/01/11 01:01:28;;;;;;;10.60;6.10;;;8.30;99.90;;;;;;5051831;28;20021;-66
2023/01/11 01:03:53;;;;;;;12.45;6.57;;;8.20;99.90;;;;;;5051218;28;20474;-65
2023/01/11 01:06:19;;;;;;;12.10;6.80;;;8.10;99.90;;;;;;5053911;28;20032;-66
2023/01/11 01:08:44;;;;;;;11.02;6.72;;;8.20;99.90;;;;;;5056105;28;20021;-66
2023/01/11 01:11:10;;;;;;;17.73;15.07;;;8.20;99.90;;;;;;5055739;28;20036;-66
2023/01/11 01:16:20;;;;;;;;;;;8.40;99.90;;;;;;5056004;28;20126;-66
2023/01/11 01:18:45;;;;;;;16.17;7.70;;;8.40;99.90;;;;;;5055472;28;19996;-66
2023/01/11 01:21:11;;;;;;;10.13;7.40;;;8.30;99.90;;;;;;5055510;28;20477;-66
2023/01/11 01:23:37;;;;;;;11.43;7.40;;;8.20;99.90;;;;;;5055428;28;20031;-66
2023/01/11 01:26:03;;;;;;;14.35;7.97;;;8.20;99.90;;;;;;5055255;28;20519;-66
2023/01/11 01:28:29;;;;;;;13.52;8.13;;;8.20;99.90;;;;;;5055017;28;20079;-66
2023/01/11 01:30:55;;;;;;;13.77;7.65;;;8.00;99.90;;;;;;5055335;28;20025;-66
2023/01/11 01:33:21;;;;;;;14.40;7.72;;;8.00;99.90;;;;;;5054548;28;20061;-66
2023/01/11 01:35:46;;;;;;;12.93;7.78;;;8.10;99.90;;;;;;5055339;28;20033;-66
2023/01/11 01:38:12;;;;;;;12.50;7.65;;;8.20;99.90;;;;;;5053878;28;20116;-66
2023/01/11 01:43:17;;;;;;;15.15;7.15;;;8.10;99.90;;;;;;5689221;22;20397;-67
2023/01/11 01:45:42;;;;;;;13.55;7.50;;;8.10;99.90;;;;;;5042481;28;20056;-69
2023/01/11 01:48:27;;;;;;;11.20;6.90;;;8.10;99.90;;;;;;5036000;28;20029;-68
2023/01/11 01:50:58;;;;;;;12.07;7.32;;;8.20;99.90;;;;;;5034490;28;20032;-69
2023/01/11 01:53:30;;;;;;;13.07;7.07;;;8.20;99.90;;;;;;5034701;28;20117;-69
2023/01/11 01:55:59;;;;;;;11.10;7.13;;;8.30;99.90;;;;;;5034870;28;20125;-70
2023/01/11 01:58:34;;;;;;;12.10;7.05;;;8.30;99.90;;;;;;5035012;28;20029;-69
2023/01/11 02:03:45;;;;;;;13.07;6.90;;;8.30;99.90;;;;;;5034760;28;20072;-68
2023/01/11 02:06:11;;;;;;;14.07;7.07;;;8.20;99.90;;;;;;5034677;28;20024;-69
2023/01/11 02:08:42;;;;;;;12.70;7.43;;;8.10;99.90;;;;;;5034769;28;20026;-69
2023/01/11 02:11:28;;;;;;;12.52;7.07;;;8.10;99.90;;;;;;5033837;28;20029;-69
2023/01/11 02:13:59;;;;;;;13.48;6.80;;;8.10;99.90;;;;;;5034021;28;20567;-68
2023/01/11 02:16:25;;;;;;;13.55;7.93;;;8.30;99.90;;;;;;5034158;28;20474;-69
2023/01/11 02:18:52;;;;;;;13.10;7.05;;;8.30;99.90;;;;;;5034802;28;20040;-68
2023/01/11 02:21:34;;;;;;;14.38;7.22;;;8.40;99.90;;;;;;5034394;28;20025;-69
2023/01/11 02:24:11;;;;;;;12.82;6.93;;;8.40;99.90;;;;;;5034559;28;20359;-68
2023/01/11 02:27:10;;;;;;;11.40;6.68;;;8.30;99.90;;;;;;5034760;28;20386;-69
2023/01/11 02:29:50;;;;;;;13.32;6.90;;;8.40;99.90;;;;;;5034388;28;20482;-69
2023/01/11 02:32:42;;;;;;;10.82;6.80;;;8.50;99.90;;;;;;5034132;28;20108;-69
2023/01/11 02:35:15;;;;;;;13.13;6.95;;;8.60;99.90;;;;;;5034273;28;20449;-69
2023/01/11 02:38:00;;;;;;;12.15;6.85;;;8.60;99.90;;;;;;5034213;28;20036;-69
2023/01/11 02:40:48;;;;;;;13.50;6.82;;;8.60;99.90;;;;;;5033973;28;20136;-69
2023/01/11 02:46:33;;;;;;;11.27;6.55;;;8.70;99.90;;;;;;5045009;28;20087;-69
2023/01/11 02:49:14;;;;;;;9.05;6.47;;;8.60;99.90;;;;;;5053903;28;20074;-68
2023/01/11 02:51:53;;;;;;;13.18;7.05;;;8.40;99.90;;;;;;5053972;28;20029;-69
2023/01/11 02:54:21;;;;;;;10.35;7.00;;;8.40;99.90;;;;;;5053995;28;20025;-69
2023/01/11 02:56:50;;;;;;;13.10;7.05;;;8.40;99.90;;;;;;5053822;28;20028;-69
2023/01/11 02:59:27;;;;;;;10.25;7.25;;;8.40;99.90;;;;;;5053512;28;20021;-69
2023/01/11 03:01:54;;;;;;;13.65;7.07;;;8.50;99.90;;;;;;5053420;28;20481;-69
2023/01/11 03:04:25;;;;;;;9.90;6.95;;;8.50;99.90;;;;;;5053003;28;20496;-69
2023/01/11 03:07:01;;;;;;;10.77;6.60;;;8.40;99.90;;;;;;5053940;28;20020;-69
2023/01/11 03:09:47;;;;;;;15.35;7.63;;;8.50;99.90;;;;;;5053890;28;20048;-68
2023/01/11 03:15:40;;;;;;;10.07;6.60;;;8.50;99.90;;;;;;5053229;28;20036;-69
2023/01/11 03:18:43;;;;;;;11.13;6.65;;;8.60;99.90;;;;;;5053225;28;20035;-69
2023/01/11 03:21:14;;;;;;;11.88;7.18;;;8.70;99.90;;;;;;4991581;28;20550;-69
2023/01/11 03:24:07;;;;;;;12.00;6.97;;;8.70;99.90;;;;;;4991493;28;20039;-69
2023/01/11 03:26:37;;;;;;;11.95;6.93;;;8.70;99.90;;;;;;4991181;28;20034;-68
2023/01/11 03:29:21;;;;;;;10.70;6.88;;;8.60;99.90;;;;;;4991365;28;20034;-69
2023/01/11 03:32:03;;;;;;;10.05;6.65;;;8.60;99.90;;;;;;4992087;28;20072;-68
2023/01/11 03:34:39;;;;;;;10.60;6.57;;;8.60;99.90;;;;;;4991950;28;20034;-68
2023/01/11 03:37:09;;;;;;;14.80;9.52;;;8.60;99.90;;;;;;4991515;28;20092;-68
2023/01/11 03:39:40;;;;;;;13.55;7.68;;;8.60;99.90;;;;;;4991394;28;20072;-69
2023/01/11 03:42:10;;;;;;;9.77;6.80;;;8.60;99.90;;;;;;4990880;28;20030;-68
2023/01/11 03:44:42;;;;;;;12.85;6.70;;;8.70;99.90;;;;;;4991081;28;20046;-69
2023/01/11 03:47:11;;;;;;;13.90;6.80;;;8.70;99.90;;;;;;4991067;28;20030;-69
2023/01/11 03:49:46;;;;;;;10.38;6.65;;;8.70;99.90;;;;;;4991772;28;20490;-68
2023/01/11 03:52:15;;;;;;;13.95;6.85;;;8.70;99.90;;;;;;4991028;28;20121;-69
2023/01/11 03:54:43;;;;;;;12.43;6.72;;;8.70;99.90;;;;;;4991131;28;20499;-68
2023/01/11 03:57:29;;;;;;;14.18;6.72;;;8.70;99.90;;;;;;5034376;28;20542;-68
2023/01/11 03:59:56;;;;;;;12.85;6.25;;;8.70;99.90;;;;;;5052442;28;20017;-68
2023/01/11 04:02:27;;;;;;;11.82;6.80;;;8.70;99.90;;;;;;5052461;28;20036;-69
2023/01/11 04:04:53;;;;;;;10.55;5.90;;;8.80;99.90;;;;;;5052370;28;20044;-68
2023/01/11 04:07:19;;;;;;;11.18;6.20;;;8.80;99.90;;;;;;5052391;28;20560;-68
2023/01/11 04:09:45;;;;;;;12.32;6.05;;;8.70;99.90;;;;;;5052173;28;20029;-68
2023/01/11 04:12:11;;;;;;;11.80;6.65;;;8.80;99.90;;;;;;5052144;28;20592;-68
2023/01/11 04:14:37;;;;;;;10.35;5.97;;;8.80;99.90;;;;;;5052201;28;20033;-68
2023/01/11 04:17:03;;;;;;;13.95;6.38;;;8.80;99.90;;;;;;5052737;28;20041;-68
2023/01/11 04:19:29;;;;;;;9.23;5.75;;;8.80;99.90;;;;;;5052242;28;20059;-68
2023/01/11 04:21:55;;;;;;;13.68;6.32;;;8.80;99.90;;;;;;5052226;28;20481;-68
2023/01/11 04:24:20;;;;;;;11.50;5.85;;;8.80;99.90;;;;;;5051830;28;20028;-68
2023/01/11 04:26:46;;;;;;;16.10;6.32;;;8.80;99.90;;;;;;5052040;28;20028;-68
2023/01/11 04:29:12;;;;;;;12.15;6.22;;;8.80;99.90;;;;;;5052158;28;20029;-68
2023/01/11 04:31:38;;;;;;;8.90;5.90;;;8.80;99.90;;;;;;5052470;28;20025;-68
2023/01/11 04:34:04;;;;;;;10.60;4.75;;;8.80;99.90;;;;;;5051955;28;20482;-68
2023/01/11 04:36:30;;;;;;;13.20;5.50;;;8.90;99.90;;;;;;5052089;28;20036;-68
2023/01/11 04:38:56;;;;;;;11.60;6.10;;;8.90;99.90;;;;;;5051581;28;20044;-68
2023/01/11 04:44:07;;;;;;;11.38;5.53;;;8.90;99.90;;;;;;5059133;28;20586;-68
2023/01/11 04:46:33;;;;;;;15.27;5.97;;;9.00;99.90;;;;;;5058451;28;20045;-68
2023/01/11 04:48:59;;;;;;;10.13;5.57;;;9.00;99.90;;;;;;5058657;28;20100;-69
2023/01/11 04:51:25;;;;;;;11.43;5.68;;;9.00;99.90;;;;;;5058518;28;20107;-68
2023/01/11 04:53:50;;;;;;;11.00;5.15;;;9.00;99.90;;;;;;5058158;28;20035;-68
2023/01/11 04:56:17;;;;;;;9.65;5.18;;;9.00;99.90;;;;;;5058420;28;20520;-68
2023/01/11 04:58:43;;;;;;;10.90;5.03;;;9.00;99.90;;;;;;5058433;28;20025;-68
2023/01/11 05:01:11;;;;;;;9.30;4.85;;;9.10;99.90;;;;;;5058426;28;20021;-68
2023/01/11 05:03:37;;;;;;;10.80;4.97;;;9.20;99.90;;;;;;5058571;28;20151;-68
2023/01/11 05:06:03;;;;;;;9.55;5.00;;;9.20;99.90;;;;;;5058562;28;20100;-68
2023/01/11 05:08:30;;;;;;;8.82;4.88;;;9.20;99.90;;;;;;5058576;28;20446;-68
2023/01/11 05:10:57;;;;;;;8.25;4.80;;;9.20;99.90;;;;;;5058416;28;20148;-69
2023/01/11 05:13:42;;;;;;;9.15;5.38;;;9.20;99.90;;;;;;5058289;28;20562;-68
2023/01/11 05:16:19;;;;;;;9.73;4.78;;;9.20;99.90;;;;;;5058287;28;20100;-68
2023/01/11 05:18:51;;;;;;;11.63;4.97;;;9.20;99.90;;;;;;5058361;28;20033;-69
2023/01/11 05:21:20;;;;;;;12.32;5.45;;;9.20;99.90;;;;;;5058717;28;20017;-69
2023/01/11 05:23:46;;;;;;;8.52;4.47;;;9.20;99.90;;;;;;5057955;28;20039;-68
2023/01/11 05:26:18;;;;;;;13.25;5.07;;;9.40;99.90;;;;;;5058274;28;20029;-69
2023/01/11 05:28:45;;;;;;;12.40;4.97;;;9.30;99.90;;;;;;5058263;28;20052;-69
2023/01/11 05:31:11;;;;;;;13.00;5.20;;;9.20;99.90;;;;;;5058278;28;20096;-68
2023/01/11 05:33:37;;;;;;;10.45;4.82;;;9.10;99.90;;;;;;5058086;28;20218;-69
2023/01/11 05:36:10;;;;;;;10.13;5.07;;;9.30;99.90;;;;;;5058158;28;20108;-69
2023/01/11 05:38:36;;;;;;;11.13;5.05;;;9.20;99.90;;;;;;5057766;28;20025;-68
2023/01/11 05:41:05;;;;;;;13.05;5.15;;;9.20;99.90;;;;;;5058114;28;20512;-68
2023/01/11 05:43:31;;;;;;;14.07;5.50;;;9.20;99.90;;;;;;5056691;28;20063;-68
2023/01/11 05:45:58;;;;;;;11.55;4.93;;;9.30;99.90;;;;;;5057717;28;20037;-69
2023/01/11 05:48:24;;;;;;;10.55;5.63;;;9.30;99.90;;;;;;5058086;28;20060;-68
2023/01/11 05:50:51;;;;;;;13.93;5.50;;;9.20;99.90;;;;;;5058507;28;20025;-69
2023/01/11 05:53:17;;;;;;;12.80;5.28;;;9.20;99.90;;;;;;5054254;28;20029;-68
2023/01/11 05:55:53;;;;;;;15.43;6.07;;;9.20;99.90;;;;;;5054848;28;20048;-68
2023/01/11 05:58:19;;;;;;;16.17;8.02;;;9.20;99.90;;;;;;5055177;28;20469;-68
2023/01/11 06:00:49;;;;;;;15.75;7.75;;;9.30;99.90;;;;;;5054987;28;20019;-69
2023/01/11 06:03:16;;;;;;;13.70;7.40;;;9.30;99.90;;;;;;5054477;28;20029;-68
2023/01/11 06:05:41;;;;;;;17.27;9.63;;;9.20;99.90;;;;;;5054370;28;20021;-68
2023/01/11 06:08:07;;;;;;;16.73;7.38;;;9.20;99.90;;;;;;5054578;28;20028;-68
2023/01/11 06:10:33;;;;;;;12.88;6.55;;;9.20;99.90;;;;;;5054455;28;20029;-68
2023/01/11 06:15:43;;;;;;;16.25;7.10;;;9.20;99.90;;;;;;5054819;28;20028;-68
2023/01/11 06:18:08;;;;;;;12.93;7.75;;;9.10;99.90;;;;;;5054328;28;20025;-68
2023/01/11 06:20:34;;;;;;;16.50;6.68;;;9.10;99.90;;;;;;5054216;28;20057;-68
2023/01/11 06:23:00;;;;;;;15.07;6.45;;;9.10;99.90;;;;;;5054195;28;20033;-68
2023/01/11 06:25:27;;;;;;;16.13;6.95;;;9.10;99.90;;;;;;5054316;28;20122;-68
2023/01/11 06:27:53;;;;;;;12.98;6.32;;;9.10;99.90;;;;;;5054086;28;20036;-68
2023/01/11 06:30:19;;;;;;;10.02;6.18;;;9.20;99.90;;;;;;5054266;28;20029;-69
2023/01/11 06:32:45;;;;;;;14.90;5.65;;;9.10;99.90;;;;;;5054063;28;20037;-68
2023/01/11 06:35:11;;;;;;;11.93;5.50;;;9.20;99.90;;;;;;5054255;28;20071;-68
2023/01/11 06:37:37;;;;;;;10.85;5.47;;;9.20;99.90;;;;;;5053950;28;20119;-68
2023/01/11 06:40:03;;;;;;;13.25;5.18;;;9.20;99.90;;;;;;5054010;28;20028;-68
2023/01/11 06:42:29;;;;;;;14.43;5.50;;;9.20;99.90;;;;;;5054327;28;20041;-68
2023/01/11 06:44:54;;;;;;;18.15;5.82;;;9.30;99.90;;;;;;5053915;28;20441;-69
2023/01/11 06:47:20;;;;;;;15.23;5.43;;;9.20;99.90;;;;;;5053519;28;20044;-70
2023/01/11 06:49:46;;;;;;;18.35;6.10;;;9.20;99.90;;;;;;5053732;28;20025;-68
2023/01/11 06:52:11;;;;;;;15.45;5.68;;;9.20;99.90;;;;;;5053914;28;20472;-68
2023/01/11 06:54:37;;;;;;;14.70;5.70;;;9.30;99.90;;;;;;5053601;28;20033;-68
2023/01/11 06:57:03;;;;;;;15.15;6.07;;;9.30;99.90;;;;;;5053871;28;20100;-68
2023/01/11 06:59:28;;;;;;;16.67;5.38;;;9.30;99.90;;;;;;5054023;28;20048;-67
2023/01/11 07:01:54;;;;;;;12.60;5.55;;;9.40;99.90;;;;;;5053754;28;20017;-68
2023/01/11 07:04:20;;;;;;;13.80;5.72;;;9.40;99.90;;;;;;5052763;28;20473;-68
2023/01/11 07:06:46;;;;;;;14.43;5.55;;;9.30;99.90;;;;;;5053775;28;20056;-68
2023/01/11 07:09:12;;;;;;;15.52;5.80;;;9.30;99.90;;;;;;5053613;28;20056;-68
2023/01/11 07:11:38;;;;;;;18.33;6.20;;;9.30;99.90;;;;;;5053493;28;20021;-68
2023/01/11 07:14:06;;;;;;;13.18;5.82;;;9.30;99.90;;;;;;5053261;28;20084;-68
2023/01/11 07:16:32;;;;;;;12.27;5.78;;;9.40;99.90;;;;;;5053828;28;20025;-68
2023/01/11 07:18:57;;;;;;;14.35;6.18;;;9.30;99.90;;;;;;5053112;28;20083;-68
2023/01/11 07:21:23;;;;;;;13.10;5.45;;;9.30;99.90;;;;;;5053231;28;20104;-68
2023/01/11 07:23:51;;;;;;;14.63;6.15;;;9.30;99.90;;;;;;5052186;28;20033;-68
2023/01/11 07:26:16;;;;;;;13.35;5.53;;;9.20;99.90;;;;;;5053330;28;20029;-68
2023/01/11 07:28:42;;;;;;;13.98;5.60;;;9.20;99.90;;;;;;5053189;28;20025;-68
2023/01/11 07:31:08;;;;;;;14.25;5.78;;;9.20;99.90;;;;;;5053170;28;20029;-68
2023/01/11 07:33:34;;;;;;;18.15;7.95;;;9.30;99.90;;;;;;5052653;28;20430;-68
2023/01/11 07:36:04;;;;;;;18.77;9.35;;;9.30;99.90;;;;;;5052863;28;20417;-67
2023/01/11 07:38:29;;;;;;;15.32;8.25;;;9.30;99.90;;;;;;5052961;28;20493;-67
2023/01/11 07:40:55;;;;;;;14.82;7.00;;;9.30;99.90;;;;;;5053018;28;20051;-67
2023/01/11 07:43:22;;;;;;;13.05;7.15;;;9.20;99.90;;;;;;5052593;28;20115;-67
2023/01/11 07:45:49;;;;;;;14.32;7.00;;;9.20;99.90;;;;;;5052712;28;20036;-68
2023/01/11 07:48:19;;;;;;;14.23;6.40;;;9.20;99.90;;;;;;5051778;28;20060;-68
2023/01/11 07:50:46;;;;;;;13.88;6.03;;;9.20;99.90;;;;;;5051480;28;20430;-68
2023/01/11 07:53:12;;;;;;;14.73;6.40;;;9.20;99.90;;;;;;5052822;28;20036;-68
2023/01/11 07:55:39;;;;;;;13.32;6.25;;;9.30;99.90;;;;;;5052596;28;20128;-65
2023/01/11 07:58:06;;;;;;;18.80;9.15;;;9.20;99.90;;;;;;5052559;28;20487;-68
2023/01/11 08:00:32;;;;;;;11.55;7.07;;;9.30;99.90;;;;;;5052513;28;20035;-67
2023/01/11 08:02:59;;;;;;;18.50;8.57;;;9.20;99.90;;;;;;5050913;28;20500;-66
2023/01/11 08:05:25;;;;;;;16.55;9.00;;;9.30;99.90;;;;;;5052401;28;20025;-66
2023/01/11 08:07:50;;;;;;;16.48;9.20;;;9.30;99.90;;;;;;5052490;28;20401;-67
2023/01/11 08:10:16;;;;;;;17.92;8.70;;;9.30;99.90;;;;;;5052643;28;20036;-67
2023/01/11 08:15:32;;;;;;;18.00;8.43;;;9.40;99.90;;;;;;5051765;28;20019;-66
2023/01/11 08:17:58;;;;;;;21.92;8.70;;;9.50;99.90;;;;;;5051752;28;20025;-66
2023/01/11 08:20:25;;;;;;;22.83;9.88;;;9.50;99.90;;;;;;5052245;28;20025;-65
2023/01/11 08:22:52;;;;;;;21.65;10.27;;;9.50;99.90;;;;;;5052168;28;20037;-66
2023/01/11 08:25:18;;;;;;;20.23;10.73;;;9.50;99.90;;;;;;5052080;28;20116;-65
2023/01/11 08:27:43;;;;;;;25.58;12.65;;;9.60;99.90;;;;;;5052569;28;20048;-65
2023/01/11 08:30:10;;;;;;;22.20;12.02;;;9.50;99.90;;;;;;5052305;28;20500;-66
2023/01/11 08:32:36;;;;;;;23.30;11.30;;;9.50;99.90;;;;;;5051345;28;20029;-68
2023/01/11 08:35:02;;;;;;;61.90;47.40;;;9.50;99.90;;;;;;5052151;28;20040;-67
2023/01/11 08:37:28;;;;;;;32.08;23.08;;;9.60;99.90;;;;;;5052459;28;20021;-67
2023/01/11 08:39:55;;;;;;;33.85;16.13;;;9.50;99.90;;;;;;5051893;28;20045;-68
2023/01/11 08:42:21;;;;;;;44.63;21.80;;;9.70;99.90;;;;;;5051914;28;20109;-67
2023/01/11 08:44:47;;;;;;;50.08;26.05;;;9.80;99.90;;;;;;5052159;28;20557;-67
2023/01/11 08:47:12;;;;;;;74.03;40.78;;;10.00;99.90;;;;;;5051269;28;20113;-67
2023/01/11 08:49:41;;;;;;;56.78;25.98;;;10.20;99.90;;;;;;5051939;28;20390;-65
2023/01/11 08:52:11;;;;;;;49.25;14.13;;;10.30;99.90;;;;;;5051721;28;20405;-67
2023/01/11 08:54:37;;;;;;;47.42;11.13;;;10.50;99.90;;;;;;5051917;28;20409;-66
2023/01/11 08:57:03;;;;;;;39.58;7.80;;;10.60;99.90;;;;;;5051020;28;20025;-66
2023/01/11 08:59:28;;;;;;;46.85;8.38;;;10.80;99.90;;;;;;5051919;28;20439;-66
2023/01/11 09:01:54;;;;;;;45.97;8.38;;;11.00;99.90;;;;;;5051305;28;20029;-67
2023/01/11 09:04:20;;;;;;;47.55;8.90;;;11.00;99.90;;;;;;5051348;28;20382;-67
2023/01/11 09:06:45;;;;;;;39.58;8.63;;;11.10;99.90;;;;;;5051761;28;20040;-66
2023/01/11 09:09:11;;;;;;;49.20;8.73;;;11.20;99.90;;;;;;5051701;28;20439;-66
2023/01/11 09:12:01;;;;;;;47.20;9.60;;;11.30;99.90;;;;;;5051706;28;20029;-66
2023/01/11 09:14:28;;;;;;;40.53;8.05;;;11.30;99.90;;;;;;5051493;28;20045;-66
2023/01/11 09:16:54;;;;;;;40.20;8.85;;;11.30;99.90;;;;;;5050161;28;20259;-66
2023/01/11 09:19:20;;;;;;;48.67;9.18;;;11.40;99.90;;;;;;5051646;28;20523;-66
2023/01/11 09:21:46;;;;;;;42.65;8.13;;;11.40;99.90;;;;;;5051495;28;20439;-65
2023/01/11 09:24:13;;;;;;;44.85;8.25;;;11.40;99.90;;;;;;5051609;28;20022;-65
2023/01/11 09:26:40;;;;;;;50.63;9.18;;;11.40;99.90;;;;;;5051446;28;20033;-66
2023/01/11 09:29:06;;;;;;;42.47;7.68;;;11.40;99.90;;;;;;5054812;28;20417;-65
2023/01/11 09:31:32;;;;;;;48.83;8.70;;;11.40;99.90;;;;;;5055164;28;20484;-66
2023/01/11 09:33:57;;;;;;;45.95;8.45;;;11.50;99.90;;;;;;5055189;28;20033;-66
2023/01/11 09:36:25;;;;;;;44.47;8.38;;;11.50;99.90;;;;;;5055364;28;20385;-66
2023/01/11 09:38:51;;;;;;;38.42;7.85;;;11.60;99.90;;;;;;5055165;28;20032;-65
2023/01/11 09:41:36;;;;;;;39.72;7.57;;;11.50;99.90;;;;;;5055064;28;20029;-66
2023/01/11 09:44:13;;;;;;;45.92;7.78;;;11.50;99.90;;;;;;5054488;28;20442;-66
2023/01/11 09:46:41;;;;;;;48.50;8.75;;;11.50;99.90;;;;;;5054658;28;20037;-66
2023/01/11 09:49:25;;;;;;;50.55;8.77;;;11.60;99.90;;;;;;5055115;28;20025;-66
2023/01/11 09:51:53;;;;;;;;;;;11.60;99.90;;;;;;5055754;28;20028;-65
2023/01/11 09:54:25;;;;;;;41.20;7.88;;;11.70;99.90;;;;;;5054803;28;19963;-66
2023/01/11 09:57:21;;;;;;;43.13;8.15;;;11.70;99.90;;;;;;5054736;28;20156;-65
2023/01/11 09:59:51;;;;;;;45.17;8.07;;;11.80;99.90;;;;;;5054619;28;20087;-66
2023/01/11 10:02:36;;;;;;;39.58;7.18;;;11.80;99.90;;;;;;5054840;28;20013;-66
2023/01/11 10:05:28;;;;;;;41.72;7.53;;;11.90;99.90;;;;;;5055081;28;20048;-65
2023/01/11 10:08:10;;;;;;;42.67;8.60;;;12.00;99.90;;;;;;5054563;28;20025;-66
2023/01/11 10:10:46;;;;;;;36.20;7.95;;;12.00;99.90;;;;;;5054251;28;20027;-66
2023/01/11 10:13:27;;;;;;;38.45;7.47;;;12.00;99.90;;;;;;5053485;28;20560;-66
2023/01/11 10:16:17;;;;;;;47.70;7.65;;;12.10;99.90;;;;;;5054025;28;20079;-66
2023/01/11 10:19:00;;;;;;;37.72;6.80;;;12.30;99.90;;;;;;5054613;28;20036;-65
2023/01/11 10:21:49;;;;;;;34.55;6.88;;;12.30;99.90;;;;;;5054276;28;20482;-67
2023/01/11 10:24:36;;;;;;;32.58;6.47;;;12.40;99.90;;;;;;5054006;28;20063;-65
2023/01/11 10:27:08;;;;;;;34.25;6.07;;;12.50;99.90;;;;;;5053755;28;20051;-65
2023/01/11 10:35:54;;;;;;;36.15;7.75;;;12.70;99.90;;;;;;5051063;28;20106;-66
2023/01/11 10:38:52;;;;;;;32.97;8.10;;;12.80;99.90;;;;;;5053057;28;20025;-66
2023/01/11 10:41:37;;;;;;;32.13;8.45;;;12.90;99.90;;;;;;5053585;28;20033;-65
2023/01/11 10:44:09;;;;;;;37.25;10.15;;;12.90;99.90;;;;;;5053588;28;20053;-65
2023/01/11 10:46:47;;;;;;;38.60;8.18;;;13.00;99.90;;;;;;5053405;28;20033;-64
2023/01/11 10:49:37;;;;;;;40.40;8.35;;;12.90;99.90;;;;;;5054058;28;20078;-65
2023/01/11 10:52:18;;;;;;;36.65;7.25;;;12.90;99.90;;;;;;5054024;28;20374;-66
2023/01/11 10:54:48;;;;;;;29.13;7.07;;;13.00;99.90;;;;;;5054000;28;20431;-65
2023/01/11 10:57:19;;;;;;;41.58;7.07;;;13.10;99.90;;;;;;5053234;28;20044;-66
2023/01/11 11:00:10;;;;;;;38.72;7.03;;;13.00;99.90;;;;;;5053803;28;20469;-66
2023/01/11 11:03:00;;;;;;;37.83;7.03;;;13.00;99.90;;;;;;5053448;28;20029;-65
2023/01/11 11:06:16;;;;;;;38.47;8.13;;;13.00;99.90;;;;;;5053582;28;20025;-65
2023/01/11 11:08:55;;;;;;;59.85;30.70;;;13.00;99.90;;;;;;5053686;28;20072;-64
2023/01/11 11:11:25;;;;;;;161.30;111.90;;;13.10;99.90;;;;;;5053135;28;20036;-65
2023/01/11 11:13:53;;;;;;;49.50;21.27;;;13.20;99.90;;;;;;5051876;28;20123;-65
2023/01/11 11:16:19;;;;;;;29.35;8.15;;;13.30;99.90;;;;;;5053038;28;20024;-66
2023/01/11 11:18:45;;;;;;;30.55;8.00;;;13.30;99.90;;;;;;5053270;28;20397;-65
2023/01/11 11:21:24;;;;;;;41.03;13.02;;;13.40;99.90;;;;;;5052947;28;20397;-66
2023/01/11 11:23:57;;;;;;;37.88;13.95;;;13.50;99.90;;;;;;5053198;28;20060;-66
2023/01/11 11:26:30;;;;;;;31.88;9.63;;;13.50;99.90;;;;;;5052767;28;20079;-66
2023/01/11 11:29:05;;;;;;;35.60;8.60;;;13.70;99.90;;;;;;5053383;28;20083;-66
2023/01/11 11:31:31;;;;;;;32.80;9.27;;;13.70;99.90;;;;;;5053138;28;20040;-66
2023/01/11 11:34:03;;;;;;;40.03;9.68;;;13.80;99.90;;;;;;5052820;28;20040;-67
2023/01/11 11:36:43;;;;;;;34.25;7.85;;;13.80;99.90;;;;;;5052940;28;20033;-67
2023/01/11 11:39:29;;;;;;;38.10;7.20;;;13.90;99.90;;;;;;5052554;28;20017;-66
2023/01/11 11:42:14;;;;;;;50.38;31.10;;;14.00;99.90;;;;;;5052755;28;20021;-66
2023/01/11 11:44:40;;;;;;;47.67;30.75;;;14.10;99.90;;;;;;5052969;28;20056;-67
2023/01/11 11:47:14;;;;;;;30.63;11.38;;;14.40;99.90;;;;;;5052561;28;20481;-67
2023/01/11 11:49:41;;;;;;;40.42;25.13;;;14.50;99.90;;;;;;5052614;28;20079;-66
2023/01/11 11:52:16;;;;;;;35.28;9.82;;;14.30;99.90;;;;;;5052545;28;20385;-67
2023/01/11 11:54:47;;;;;;;32.45;13.07;;;14.30;99.90;;;;;;5052221;28;20489;-66
2023/01/11 11:57:22;;;;;;;35.53;14.45;;;14.30;99.90;;;;;;5052410;28;20051;-67
2023/01/11 11:59:51;;;;;;;35.00;16.52;;;14.20;99.90;;;;;;5052710;28;20033;-66
2023/01/11 12:02:30;;;;;;;24.60;8.07;;;14.00;99.90;;;;;;5052302;28;20692;-67
2023/01/11 12:04:58;;;;;;;26.65;10.45;;;13.30;99.90;;;;;;5052253;28;20013;-67
2023/01/11 12:07:32;;;;;;;31.90;14.02;;;13.10;99.90;;;;;;5051682;28;20029;-67
2023/01/11 12:10:01;;;;;;;26.45;9.85;;;13.10;99.90;;;;;;5051781;28;20009;-67
2023/01/11 12:12:27;;;;;;;27.58;11.27;;;13.20;99.90;;;;;;5052131;28;20033;-67
2023/01/11 12:15:14;;;;;;;34.85;18.25;;;13.30;99.90;;;;;;5052689;28;20382;-67
2023/01/11 12:17:40;;;;;;;31.98;14.90;;;13.30;99.90;;;;;;5052242;28;20032;-67
2023/01/11 12:20:21;;;;;;;27.27;10.25;;;13.30;99.90;;;;;;5052430;28;20025;-66
2023/01/11 12:23:06;;;;;;;16.75;5.72;;;13.50;99.90;;;;;;5051717;28;20028;-67
2023/01/11 12:25:41;;;;;;;19.50;5.13;;;13.50;99.90;;;;;;5052035;28;20044;-67
2023/01/11 12:28:19;;;;;;;19.60;4.85;;;13.50;99.90;;;;;;5052188;28;20056;-67
2023/01/11 12:31:03;;;;;;;19.88;5.32;;;13.40;99.90;;;;;;5052085;28;20032;-67
2023/01/11 12:34:05;;;;;;;21.50;4.93;;;13.30;99.90;;;;;;5051879;28;20033;-67
2023/01/11 12:36:43;;;;;;;20.58;4.80;;;13.30;99.90;;;;;;5051982;28;20060;-67
2023/01/11 12:39:25;;;;;;;16.48;4.43;;;13.10;99.90;;;;;;5051697;28;20021;-67
2023/01/11 12:42:02;;;;;;;20.65;4.38;;;13.20;99.90;;;;;;5052452;28;20071;-67
2023/01/11 12:44:42;;;;;;;23.98;4.72;;;13.30;99.90;;;;;;5052322;28;20127;-67
2023/01/11 12:47:37;;;;;;;21.80;4.68;;;13.30;99.90;;;;;;5051741;28;20040;-67
2023/01/11 12:50:39;;;;;;;22.40;4.93;;;13.20;99.90;;;;;;4990564;28;20043;-67
2023/01/11 12:53:05;;;;;;;20.05;4.55;;;13.10;99.90;;;;;;4973635;28;20499;-67
2023/01/11 12:55:33;;;;;;;18.05;4.70;;;12.90;99.90;;;;;;4990611;28;20034;-67
2023/01/11 12:58:07;;;;;;;23.83;5.43;;;13.00;99.90;;;;;;4974127;28;20041;-67
2023/01/11 13:01:12;;;;;;;23.45;5.20;;;13.30;99.90;;;;;;4990895;28;20376;-67
2023/01/11 13:03:56;;;;;;;;;;;13.90;99.90;;;;;;4994626;28;20045;-67
2023/01/11 13:06:32;;;;;;;26.17;6.05;;;14.20;99.90;;;;;;4994027;28;19940;-67
2023/01/11 13:09:28;;;;;;;24.98;5.35;;;14.50;99.90;;;;;;4994247;28;20030;-67
2023/01/11 13:12:15;;;;;;;21.55;5.20;;;14.50;99.90;;;;;;4994174;28;20449;-67
2023/01/11 13:14:56;;;;;;;24.35;4.72;;;14.60;99.90;;;;;;4994163;28;20514;-67
2023/01/11 13:17:34;;;;;;;24.70;5.15;;;14.50;99.90;;;;;;4993978;28;20030;-67
2023/01/11 13:20:16;;;;;;;23.88;5.40;;;14.60;99.90;;;;;;4994405;28;20034;-67
2023/01/11 13:23:10;;;;;;;24.65;5.43;;;14.70;99.90;;;;;;4993975;28;20033;-66
2023/01/11 13:25:40;;;;;;;20.67;4.55;;;14.90;99.90;;;;;;4998401;28;20036;-67
2023/01/11 13:28:34;;;;;;;24.58;5.50;;;14.80;99.90;;;;;;5055369;28;20025;-67
2023/01/11 13:31:03;;;;;;;23.50;5.88;;;14.90;99.90;;;;;;5048480;28;20033;-67
2023/01/11 13:33:31;;;;;;;22.88;5.05;;;14.80;99.90;;;;;;5055147;28;20446;-67
2023/01/11 13:36:04;;;;;;;22.60;5.10;;;14.60;99.90;;;;;;5054961;28;20045;-67
2023/01/11 13:38:36;;;;;;;27.58;5.38;;;14.30;99.90;;;;;;5053932;28;20041;-67
2023/01/11 13:41:22;;;;;;;20.95;4.55;;;14.00;99.90;;;;;;5055206;28;20405;-67
2023/01/11 13:43:48;;;;;;;22.45;4.68;;;13.80;99.90;;;;;;5054906;28;20053;-66
2023/01/11 13:46:37;;;;;;;28.13;4.70;;;13.70;99.90;;;;;;5055318;28;20021;-67